sensor_id;sensor_type;location;lat;lon;timestamp;temperature;humidity
56123;DHT22;42426;46.104;19.656;2023-08-01T04:55:21;487.00;2380.80
56123;DHT22;42426;46.104;19.656;2023-08-01T04:57:46;486.90;2380.80
56123;DHT22;42426;46.104;19.656;2023-08-01T05:00:12;487.00;2380.80
56123;DHT22;42426;46.104;19.656;2023-08-01T05:02:38;487.10;2380.80
56123;DHT22;42426;46.104;19.656;2023-08-01T05:05:04;487.10;2380.80
56123;DHT22;42426;46.104;19.656;2023-08-01T05:07:30;487.20;2380.80
56123;DHT22;42426;46.104;19.656;2023-08-01T05:09:56;487.20;2380.80
56123;DHT22;42426;46.104;19.656;2023-08-01T05:12:22;487.30;2380.80
56123;DHT22;42426;46.104;19.656;2023-08-01T05:14:47;512.00;2380.80
56123;DHT22;42426;46.104;19.656;2023-08-01T05:17:13;512.00;2380.80
56123;DHT22;42426;46.104;19.656;2023-08-01T05:19:39;512.10;2380.80
56123;DHT22;42426;46.104;19.656;2023-08-01T05:22:05;512.70;2380.80
56123;DHT22;42426;46.104;19.656;2023-08-01T05:24:30;512.30;2380.80
56123;DHT22;42426;46.104;19.656;2023-08-01T05:26:56;512.30;2380.80
56123;DHT22;42426;46.104;19.656;2023-08-01T05:29:22;512.40;2380.80
56123;DHT22;42426;46.104;19.656;2023-08-01T05:31:47;512.50;2380.80
56123;DHT22;42426;46.104;19.656;2023-08-01T05:34:13;512.60;2380.80
56123;DHT22;42426;46.104;19.656;2023-08-01T05:36:39;512.70;2380.80
56123;DHT22;42426;46.104;19.656;2023-08-01T05:39:05;512.80;2355.20
56123;DHT22;42426;46.104;19.656;2023-08-01T05:41:30;512.80;2355.20
56123;DHT22;42426;46.104;19.656;2023-08-01T05:43:57;512.90;2329.60
56123;DHT22;42426;46.104;19.656;2023-08-01T05:46:23;537.60;2380.80
56123;DHT22;42426;46.104;19.656;2023-08-01T05:48:49;537.70;2355.20
56123;DHT22;42426;46.104;19.656;2023-08-01T05:51:14;537.70;2355.20
56123;DHT22;42426;46.104;19.656;2023-08-01T05:53:40;537.80;2355.20
56123;DHT22;42426;46.104;19.656;2023-08-01T05:56:06;537.90;2355.20
56123;DHT22;42426;46.104;19.656;2023-08-01T05:58:32;537.90;2355.20
56123;DHT22;42426;46.104;19.656;2023-08-01T06:00:58;538.00;2355.20
56123;DHT22;42426;46.104;19.656;2023-08-01T06:03:23;538.00;2380.80
56123;DHT22;42426;46.104;19.656;2023-08-01T06:05:49;538.20;2380.80
56123;DHT22;42426;46.104;19.656;2023-08-01T06:08:15;538.20;2380.80
56123;DHT22;42426;46.104;19.656;2023-08-01T06:10:44;538.20;2380.80
56123;DHT22;42426;46.104;19.656;2023-08-01T06:13:09;538.30;2355.20
56123;DHT22;42426;46.104;19.656;2023-08-01T06:15:35;538.40;2355.20
56123;DHT22;42426;46.104;19.656;2023-08-01T06:18:01;538.50;2355.20
56123;DHT22;42426;46.104;19.656;2023-08-01T06:22:54;563.50;2329.60
56123;DHT22;42426;46.104;19.656;2023-08-01T06:37:30;564.00;2201.60
56123;DHT22;42426;46.104;19.656;2023-08-01T06:39:57;563.90;2201.60
56123;DHT22;42426;46.104;19.656;2023-08-01T06:42:23;564.00;2227.20
56123;DHT22;42426;46.104;19.656;2023-08-01T06:44:49;588.90;2201.60
56123;DHT22;42426;46.104;19.656;2023-08-01T10:51:50;742.40;1356.80
56123;DHT22;42426;46.104;19.656;2023-08-01T10:54:34;717.60;1305.60
56123;DHT22;42426;46.104;19.656;2023-08-01T10:57:03;717.70;1305.60
56123;DHT22;42426;46.104;19.656;2023-08-01T10:59:31;742.40;1382.40
56123;DHT22;42426;46.104;19.656;2023-08-01T11:01:58;742.40;1356.80
56123;DHT22;42426;46.104;19.656;2023-08-01T11:04:26;742.50;1356.80
56123;DHT22;42426;46.104;19.656;2023-08-01T11:06:53;742.60;1356.80
56123;DHT22;42426;46.104;19.656;2023-08-01T11:09:26;742.70;1280.00
56123;DHT22;42426;46.104;19.656;2023-08-01T11:14:24;742.90;1305.60
56123;DHT22;42426;46.104;19.656;2023-08-01T11:16:50;742.80;1305.60
56123;DHT22;42426;46.104;19.656;2023-08-01T11:21:50;742.90;1305.60
56123;DHT22;42426;46.104;19.656;2023-08-01T11:24:17;742.90;1305.60
56123;DHT22;42426;46.104;19.656;2023-08-01T11:26:45;743.00;1280.00
56123;DHT22;42426;46.104;19.656;2023-08-01T11:29:11;743.10;1254.40
56123;DHT22;42426;46.104;19.656;2023-08-01T11:31:38;743.20;1254.40
56123;DHT22;42426;46.104;19.656;2023-08-01T11:34:04;743.20;1280.00
56123;DHT22;42426;46.104;19.656;2023-08-01T11:36:30;743.20;1254.40
56123;DHT22;42426;46.104;19.656;2023-08-01T11:38:57;743.20;1228.80
56123;DHT22;42426;46.104;19.656;2023-08-01T11:41:25;768.00;1177.60
56123;DHT22;42426;46.104;19.656;2023-08-01T11:43:51;743.20;1254.40
56123;DHT22;42426;46.104;19.656;2023-08-01T11:46:17;768.00;1305.60
56123;DHT22;42426;46.104;19.656;2023-08-01T11:48:46;768.00;1331.20
56123;DHT22;42426;46.104;19.656;2023-08-01T11:51:12;743.20;1305.60
56123;DHT22;42426;46.104;19.656;2023-08-01T11:53:38;743.20;1331.20
56123;DHT22;42426;46.104;19.656;2023-08-01T11:56:07;743.30;1305.60
56123;DHT22;42426;46.104;19.656;2023-08-01T11:58:39;768.00;1331.20
56123;DHT22;42426;46.104;19.656;2023-08-01T12:01:09;768.20;1280.00
56123;DHT22;42426;46.104;19.656;2023-08-01T12:03:52;768.30;1203.20
56123;DHT22;42426;46.104;19.656;2023-08-01T12:06:22;768.30;1254.40
56123;DHT22;42426;46.104;19.656;2023-08-01T12:08:52;768.40;1203.20
56123;DHT22;42426;46.104;19.656;2023-08-01T12:13:45;768.40;1254.40
56123;DHT22;42426;46.104;19.656;2023-08-01T12:16:11;768.30;1228.80
56123;DHT22;42426;46.104;19.656;2023-08-01T12:18:39;768.40;1203.20
56123;DHT22;42426;46.104;19.656;2023-08-01T12:21:05;768.40;1152.00
56123;DHT22;42426;46.104;19.656;2023-08-01T12:23:31;768.40;1177.60
56123;DHT22;42426;46.104;19.656;2023-08-01T12:25:57;768.40;1228.80
56123;DHT22;42426;46.104;19.656;2023-08-01T12:28:23;768.40;1228.80
56123;DHT22;42426;46.104;19.656;2023-08-01T12:30:48;768.40;1254.40
56123;DHT22;42426;46.104;19.656;2023-08-01T12:33:16;768.50;1254.40
56123;DHT22;42426;46.104;19.656;2023-08-01T12:35:42;768.50;1228.80
56123;DHT22;42426;46.104;19.656;2023-08-01T12:38:09;768.40;1280.00
56123;DHT22;42426;46.104;19.656;2023-08-01T12:40:35;768.40;1228.80
56123;DHT22;42426;46.104;19.656;2023-08-01T12:43:01;768.30;1203.20
56123;DHT22;42426;46.104;19.656;2023-08-01T12:45:26;768.30;1254.40
56123;DHT22;42426;46.104;19.656;2023-08-01T12:47:52;768.20;1305.60
56123;DHT22;42426;46.104;19.656;2023-08-01T12:50:18;768.10;1331.20
56123;DHT22;42426;46.104;19.656;2023-08-01T12:52:43;768.10;1305.60
56123;DHT22;42426;46.104;19.656;2023-08-01T12:55:09;768.00;1331.20
56123;DHT22;42426;46.104;19.656;2023-08-01T12:57:35;768.00;1331.20
56123;DHT22;42426;46.104;19.656;2023-08-01T13:00:00;743.30;1305.60
56123;DHT22;42426;46.104;19.656;2023-08-01T13:02:27;743.30;1331.20
56123;DHT22;42426;46.104;19.656;2023-08-01T13:04:53;743.30;1331.20
56123;DHT22;42426;46.104;19.656;2023-08-01T13:07:18;743.00;1331.20
56123;DHT22;42426;46.104;19.656;2023-08-01T13:09:45;742.90;1331.20
56123;DHT22;42426;46.104;19.656;2023-08-01T13:12:11;742.90;1331.20
56123;DHT22;42426;46.104;19.656;2023-08-01T13:14:36;742.90;1382.40
56123;DHT22;42426;46.104;19.656;2023-08-01T13:17:02;742.90;1382.40
56123;DHT22;42426;46.104;19.656;2023-08-01T13:19:28;743.00;1356.80
56123;DHT22;42426;46.104;19.656;2023-08-01T13:21:54;743.00;1305.60
56123;DHT22;42426;46.104;19.656;2023-08-01T13:24:19;742.90;1331.20
56123;DHT22;42426;46.104;19.656;2023-08-01T13:26:45;743.00;1305.60
56123;DHT22;42426;46.104;19.656;2023-08-01T13:29:11;743.00;1305.60
56123;DHT22;42426;46.104;19.656;2023-08-01T13:31:36;743.00;1331.20
56123;DHT22;42426;46.104;19.656;2023-08-01T13:34:02;743.10;1280.00
56123;DHT22;42426;46.104;19.656;2023-08-01T13:36:28;742.90;1305.60
56123;DHT22;42426;46.104;19.656;2023-08-01T13:38:54;742.90;1331.20
56123;DHT22;42426;46.104;19.656;2023-08-01T13:41:19;742.90;1356.80
56123;DHT22;42426;46.104;19.656;2023-08-01T13:43:45;742.90;1356.80
56123;DHT22;42426;46.104;19.656;2023-08-01T13:46:16;742.90;1331.20
56123;DHT22;42426;46.104;19.656;2023-08-01T13:48:43;742.80;1331.20
56123;DHT22;42426;46.104;19.656;2023-08-01T13:51:09;742.80;1331.20
56123;DHT22;42426;46.104;19.656;2023-08-01T13:53:35;742.90;1280.00
56123;DHT22;42426;46.104;19.656;2023-08-01T13:56:13;742.90;1305.60
56123;DHT22;42426;46.104;19.656;2023-08-01T13:58:39;743.00;1331.20
56123;DHT22;42426;46.104;19.656;2023-08-01T14:01:06;743.20;1356.80
56123;DHT22;42426;46.104;19.656;2023-08-01T14:03:33;743.20;1382.40
56123;DHT22;42426;46.104;19.656;2023-08-01T14:06:10;743.30;1331.20
56123;DHT22;42426;46.104;19.656;2023-08-01T14:08:40;768.00;1356.80
56123;DHT22;42426;46.104;19.656;2023-08-01T14:11:08;768.10;1305.60
56123;DHT22;42426;46.104;19.656;2023-08-01T14:13:34;768.10;1356.80
56123;DHT22;42426;46.104;19.656;2023-08-01T14:16:01;768.00;1356.80
56123;DHT22;42426;46.104;19.656;2023-08-01T14:18:28;768.00;1305.60
56123;DHT22;42426;46.104;19.656;2023-08-01T14:20:54;768.00;1331.20
56123;DHT22;42426;46.104;19.656;2023-08-01T14:23:20;768.00;1356.80
56123;DHT22;42426;46.104;19.656;2023-08-01T14:25:46;743.30;1356.80
56123;DHT22;42426;46.104;19.656;2023-08-01T14:28:13;768.00;1356.80
56123;DHT22;42426;46.104;19.656;2023-08-01T14:30:39;768.00;1356.80
56123;DHT22;42426;46.104;19.656;2023-08-01T14:33:07;768.00;1356.80
56123;DHT22;42426;46.104;19.656;2023-08-01T14:35:37;768.00;1305.60
56123;DHT22;42426;46.104;19.656;2023-08-01T14:38:04;743.20;1356.80
56123;DHT22;42426;46.104;19.656;2023-08-01T14:40:30;743.20;1382.40
56123;DHT22;42426;46.104;19.656;2023-08-01T14:42:56;743.20;1356.80
56123;DHT22;42426;46.104;19.656;2023-08-01T14:45:22;743.20;1382.40
56123;DHT22;42426;46.104;19.656;2023-08-01T14:47:48;743.20;1408.00
56123;DHT22;42426;46.104;19.656;2023-08-01T14:50:14;743.20;1382.40
56123;DHT22;42426;46.104;19.656;2023-08-01T14:52:40;743.30;1356.80
56123;DHT22;42426;46.104;19.656;2023-08-01T14:55:06;743.30;1356.80
56123;DHT22;42426;46.104;19.656;2023-08-01T14:57:33;743.20;1382.40
56123;DHT22;42426;46.104;19.656;2023-08-01T14:59:58;768.00;1356.80
56123;DHT22;42426;46.104;19.656;2023-08-01T15:02:26;743.30;1382.40
56123;DHT22;42426;46.104;19.656;2023-08-01T15:04:53;743.10;1356.80
56123;DHT22;42426;46.104;19.656;2023-08-01T15:07:24;743.20;1356.80
56123;DHT22;42426;46.104;19.656;2023-08-01T15:09:51;743.20;1356.80
56123;DHT22;42426;46.104;19.656;2023-08-01T15:12:21;743.20;1331.20
56123;DHT22;42426;46.104;19.656;2023-08-01T15:14:50;743.20;1382.40
56123;DHT22;42426;46.104;19.656;2023-08-01T15:17:16;743.10;1356.80
56123;DHT22;42426;46.104;19.656;2023-08-01T15:19:42;742.90;1356.80
56123;DHT22;42426;46.104;19.656;2023-08-01T15:22:09;742.90;1382.40
56123;DHT22;42426;46.104;19.656;2023-08-01T15:24:35;742.90;1356.80
56123;DHT22;42426;46.104;19.656;2023-08-01T15:27:00;742.80;1382.40
56123;DHT22;42426;46.104;19.656;2023-08-01T15:29:26;768.00;1382.40
56123;DHT22;42426;46.104;19.656;2023-08-01T15:31:52;742.70;1382.40
56123;DHT22;42426;46.104;19.656;2023-08-01T15:34:18;742.50;1382.40
56123;DHT22;42426;46.104;19.656;2023-08-01T15:36:47;742.50;1382.40
56123;DHT22;42426;46.104;19.656;2023-08-01T15:39:14;742.50;1408.00
56123;DHT22;42426;46.104;19.656;2023-08-01T15:41:40;742.60;1382.40
56123;DHT22;42426;46.104;19.656;2023-08-01T15:44:06;742.50;1382.40
56123;DHT22;42426;46.104;19.656;2023-08-01T15:46:32;742.50;1382.40
56123;DHT22;42426;46.104;19.656;2023-08-01T15:49:01;742.50;1382.40
56123;DHT22;42426;46.104;19.656;2023-08-01T15:51:35;742.40;1408.00
56123;DHT22;42426;46.104;19.656;2023-08-01T15:54:01;742.50;1382.40
56123;DHT22;42426;46.104;19.656;2023-08-01T16:11:06;742.90;1459.20
56123;DHT22;42426;46.104;19.656;2023-08-01T16:13:32;742.80;1433.60
56123;DHT22;42426;46.104;19.656;2023-08-01T16:15:57;743.30;1382.40
56123;DHT22;42426;46.104;19.656;2023-08-01T16:18:28;768.00;1382.40
56123;DHT22;42426;46.104;19.656;2023-08-01T16:20:53;768.00;1356.80
56123;DHT22;42426;46.104;19.656;2023-08-01T16:23:19;768.00;1356.80
56123;DHT22;42426;46.104;19.656;2023-08-01T16:25:45;768.00;1331.20
56123;DHT22;42426;46.104;19.656;2023-08-01T16:28:10;768.20;1331.20
56123;DHT22;42426;46.104;19.656;2023-08-01T16:30:36;768.20;1305.60
56123;DHT22;42426;46.104;19.656;2023-08-01T16:33:02;743.00;1331.20
56123;DHT22;42426;46.104;19.656;2023-08-01T16:35:28;743.20;1356.80
56123;DHT22;42426;46.104;19.656;2023-08-01T16:37:54;743.10;1356.80
56123;DHT22;42426;46.104;19.656;2023-08-01T16:40:20;743.00;1331.20
56123;DHT22;42426;46.104;19.656;2023-08-01T16:42:46;742.90;1356.80
56123;DHT22;42426;46.104;19.656;2023-08-01T16:45:12;743.20;1356.80
56123;DHT22;42426;46.104;19.656;2023-08-01T16:47:38;743.10;1382.40
56123;DHT22;42426;46.104;19.656;2023-08-01T16:50:04;743.00;1408.00
56123;DHT22;42426;46.104;19.656;2023-08-01T16:52:30;742.90;1408.00
56123;DHT22;42426;46.104;19.656;2023-08-01T16:54:56;742.90;1408.00
56123;DHT22;42426;46.104;19.656;2023-08-01T16:57:21;742.90;1408.00
56123;DHT22;42426;46.104;19.656;2023-08-01T16:59:48;742.70;1433.60
56123;DHT22;42426;46.104;19.656;2023-08-01T20:37:27;538.30;2380.80
56123;DHT22;42426;46.104;19.656;2023-08-01T20:39:53;538.10;2355.20
56123;DHT22;42426;46.104;19.656;2023-08-01T20:42:19;538.10;2406.40
56123;DHT22;42426;46.104;19.656;2023-08-01T20:44:46;537.90;2406.40
56123;DHT22;42426;46.104;19.656;2023-08-01T20:47:11;537.80;2406.40
56123;DHT22;42426;46.104;19.656;2023-08-01T20:49:37;537.70;2406.40
56123;DHT22;42426;46.104;19.656;2023-08-01T20:52:03;537.60;2406.40
56123;DHT22;42426;46.104;19.656;2023-08-01T20:54:29;537.60;2406.40
56123;DHT22;42426;46.104;19.656;2023-08-01T20:56:54;537.60;2406.40
56123;DHT22;42426;46.104;19.656;2023-08-01T20:59:20;537.60;2406.40
56123;DHT22;42426;46.104;19.656;2023-08-01T21:01:47;512.80;2380.80
56123;DHT22;42426;46.104;19.656;2023-08-01T21:04:13;512.90;2380.80
56123;DHT22;42426;46.104;19.656;2023-08-01T21:06:39;512.90;2380.80
56123;DHT22;42426;46.104;19.656;2023-08-01T21:09:04;537.60;2406.40
56123;DHT22;42426;46.104;19.656;2023-08-01T21:11:30;537.70;2406.40
56123;DHT22;42426;46.104;19.656;2023-08-01T21:13:56;537.70;2406.40
56123;DHT22;42426;46.104;19.656;2023-08-01T21:16:21;537.60;2406.40
56123;DHT22;42426;46.104;19.656;2023-08-01T21:18:47;537.60;2406.40
56123;DHT22;42426;46.104;19.656;2023-08-01T21:21:14;537.70;2406.40
56123;DHT22;42426;46.104;19.656;2023-08-01T21:23:40;537.70;2406.40
56123;DHT22;42426;46.104;19.656;2023-08-01T21:26:06;537.60;2406.40
56123;DHT22;42426;46.104;19.656;2023-08-01T21:28:32;512.90;2380.80
56123;DHT22;42426;46.104;19.656;2023-08-01T21:30:58;537.60;2406.40
56123;DHT22;42426;46.104;19.656;2023-08-01T21:33:24;512.90;2380.80
56123;DHT22;42426;46.104;19.656;2023-08-01T21:35:49;512.90;2380.80
56123;DHT22;42426;46.104;19.656;2023-08-01T21:38:15;512.80;2380.80
56123;DHT22;42426;46.104;19.656;2023-08-01T21:40:41;512.80;2380.80
56123;DHT22;42426;46.104;19.656;2023-08-01T21:43:07;512.80;2380.80
56123;DHT22;42426;46.104;19.656;2023-08-01T21:45:32;512.80;2380.80
56123;DHT22;42426;46.104;19.656;2023-08-01T21:48:00;512.90;2380.80
56123;DHT22;42426;46.104;19.656;2023-08-01T21:50:26;537.60;2406.40
56123;DHT22;42426;46.104;19.656;2023-08-01T21:52:51;537.60;2406.40
56123;DHT22;42426;46.104;19.656;2023-08-01T21:55:18;512.80;2380.80
56123;DHT22;42426;46.104;19.656;2023-08-01T21:57:45;512.80;2380.80
56123;DHT22;42426;46.104;19.656;2023-08-01T22:00:11;512.80;2380.80
56123;DHT22;42426;46.104;19.656;2023-08-01T22:02:38;512.90;2380.80
56123;DHT22;42426;46.104;19.656;2023-08-01T22:05:05;537.70;2406.40
56123;DHT22;42426;46.104;19.656;2023-08-01T22:07:31;537.60;2406.40
56123;DHT22;42426;46.104;19.656;2023-08-01T22:09:58;537.60;2406.40
56123;DHT22;42426;46.104;19.656;2023-08-01T22:12:24;512.80;2380.80
56123;DHT22;42426;46.104;19.656;2023-08-01T22:14:51;512.90;2380.80
56123;DHT22;42426;46.104;19.656;2023-08-01T22:17:17;512.80;2380.80
56123;DHT22;42426;46.104;19.656;2023-08-01T22:19:43;512.80;2380.80
56123;DHT22;42426;46.104;19.656;2023-08-01T22:22:09;512.80;2380.80
56123;DHT22;42426;46.104;19.656;2023-08-01T22:24:35;512.80;2380.80
56123;DHT22;42426;46.104;19.656;2023-08-01T22:27:01;512.70;2380.80
56123;DHT22;42426;46.104;19.656;2023-08-01T22:29:27;512.70;2380.80
56123;DHT22;42426;46.104;19.656;2023-08-01T22:31:53;512.70;2380.80
56123;DHT22;42426;46.104;19.656;2023-08-01T22:34:19;512.80;2380.80
56123;DHT22;42426;46.104;19.656;2023-08-01T22:36:45;512.70;2380.80
56123;DHT22;42426;46.104;19.656;2023-08-01T22:39:12;512.60;2380.80
56123;DHT22;42426;46.104;19.656;2023-08-01T22:41:40;512.70;2380.80
56123;DHT22;42426;46.104;19.656;2023-08-01T22:44:06;512.70;2380.80
56123;DHT22;42426;46.104;19.656;2023-08-01T22:46:31;512.80;2380.80
56123;DHT22;42426;46.104;19.656;2023-08-01T22:48:57;512.80;2380.80
56123;DHT22;42426;46.104;19.656;2023-08-01T22:51:23;512.80;2380.80
56123;DHT22;42426;46.104;19.656;2023-08-01T22:53:50;512.80;2380.80
56123;DHT22;42426;46.104;19.656;2023-08-01T22:56:17;512.60;2380.80
56123;DHT22;42426;46.104;19.656;2023-08-01T22:58:43;512.70;2380.80
56123;DHT22;42426;46.104;19.656;2023-08-01T23:01:10;512.60;2380.80
56123;DHT22;42426;46.104;19.656;2023-08-01T23:03:37;512.40;2380.80
56123;DHT22;42426;46.104;19.656;2023-08-01T23:06:03;512.40;2380.80
56123;DHT22;42426;46.104;19.656;2023-08-01T23:08:29;512.30;2380.80
56123;DHT22;42426;46.104;19.656;2023-08-01T23:10:59;512.30;2380.80
56123;DHT22;42426;46.104;19.656;2023-08-01T23:13:26;512.30;2380.80
56123;DHT22;42426;46.104;19.656;2023-08-01T23:15:52;512.10;2380.80
56123;DHT22;42426;46.104;19.656;2023-08-01T23:18:18;512.10;2380.80
56123;DHT22;42426;46.104;19.656;2023-08-01T23:20:43;512.10;2380.80
56123;DHT22;42426;46.104;19.656;2023-08-01T23:23:10;512.00;2380.80
56123;DHT22;42426;46.104;19.656;2023-08-01T23:25:35;487.30;2380.80
56123;DHT22;42426;46.104;19.656;2023-08-01T23:28:01;487.30;2380.80
56123;DHT22;42426;46.104;19.656;2023-08-01T23:30:27;487.30;2380.80
56123;DHT22;42426;46.104;19.656;2023-08-01T23:32:53;512.00;2380.80
